Time;durP1;ratioP1;P1;durP2;ratioP2;P2;SDS_P1;SDS_P2;PMS_P1;PMS_P2;Temp;Humidity;BMP_temperature;BMP_pressure;BME280_temperature;BME280_humidity;BME280_pressure;Samples;Min_cycle;Max_cycle;Signal;HPM_P1;HPM_P2
2021/07/27 00:01:41;;;;;;;1999.90;999.90;;;21.40;99.90;;;;;;4865662;29;20501;-81
2021/07/27 00:04:07;;;;;;;1999.90;999.90;;;21.40;99.90;;;;;;4866086;29;20269;-81
2021/07/27 00:06:33;;;;;;;1999.90;999.90;;;21.40;99.90;;;;;;4865475;29;20469;-81
2021/07/27 00:08:58;;;;;;;1999.90;999.90;;;21.30;99.90;;;;;;4865303;29;20167;-80
2021/07/27 00:11:24;;;;;;;1999.90;999.90;;;21.30;99.90;;;;;;4864130;29;20182;-81
2021/07/27 00:13:50;;;;;;;1999.90;999.90;;;21.30;99.90;;;;;;4865512;29;20674;-80
2021/07/27 00:16:16;;;;;;;1999.90;999.90;;;21.30;99.90;;;;;;4865749;29;20214;-80
2021/07/27 00:18:41;;;;;;;1999.90;999.90;;;21.20;99.90;;;;;;4864668;29;20167;-80
2021/07/27 00:21:07;;;;;;;1999.90;999.90;;;21.30;99.90;;;;;;4864586;29;20238;-80
2021/07/27 00:23:38;;;;;;;1999.90;999.90;;;21.30;99.90;;;;;;4863493;29;20235;-81
2021/07/27 00:26:14;;;;;;;1999.90;999.90;;;21.30;99.90;;;;;;4863539;29;20683;-81
2021/07/27 00:28:40;;;;;;;1999.90;999.90;;;21.20;99.90;;;;;;4863316;29;20418;-80
2021/07/27 00:31:07;;;;;;;1999.90;999.90;;;21.20;99.90;;;;;;4865382;29;20416;-81
2021/07/27 00:33:33;;;;;;;1999.90;999.90;;;21.20;99.90;;;;;;4863397;29;20971;-81
2021/07/27 00:36:01;;;;;;;1999.90;999.90;;;21.20;99.90;;;;;;4863240;29;20450;-80
2021/07/27 00:38:27;;;;;;;1999.90;999.90;;;21.20;99.90;;;;;;4863265;29;20420;-80
2021/07/27 00:40:52;;;;;;;1999.90;999.90;;;21.10;99.90;;;;;;4864342;29;20412;-81
2021/07/27 00:43:21;;;;;;;1999.90;999.90;;;21.10;99.90;;;;;;4864135;29;20163;-81
2021/07/27 00:45:47;;;;;;;1999.90;999.90;;;21.10;99.90;;;;;;4864237;29;20223;-80
2021/07/27 00:48:13;;;;;;;1999.90;999.90;;;21.00;99.90;;;;;;4864289;29;20408;-81
2021/07/27 00:50:39;;;;;;;1999.90;999.90;;;20.90;99.90;;;;;;4863343;29;20903;-81
2021/07/27 00:53:06;;;;;;;1999.90;999.90;;;20.90;99.90;;;;;;4864157;29;20177;-80
2021/07/27 00:55:33;;;;;;;1999.90;999.90;;;20.90;99.90;;;;;;4862871;29;20424;-81
2021/07/27 00:57:59;;;;;;;1999.90;999.90;;;20.90;99.90;;;;;;4864452;29;20419;-81
2021/07/27 01:00:26;;;;;;;1999.90;999.90;;;20.90;99.90;;;;;;4864555;29;20416;-81
2021/07/27 01:02:52;;;;;;;1999.90;999.90;;;20.90;99.90;;;;;;4865217;29;20479;-81
2021/07/27 01:05:18;;;;;;;1999.90;999.90;;;20.90;99.90;;;;;;4865031;29;20448;-81
2021/07/27 01:07:46;;;;;;;1999.90;999.90;;;20.90;99.90;;;;;;4864779;29;20431;-81
2021/07/27 01:10:16;;;;;;;1999.90;999.90;;;20.90;99.90;;;;;;4863259;29;20425;-81
2021/07/27 01:12:42;;;;;;;1999.90;999.90;;;20.90;99.90;;;;;;4864206;29;20423;-81
2021/07/27 01:15:11;;;;;;;1999.90;999.90;;;20.80;99.90;;;;;;4864211;29;20448;-81
2021/07/27 01:17:36;;;;;;;1999.90;999.90;;;20.80;99.90;;;;;;4864797;29;20436;-81
2021/07/27 01:44:04;;;;;;;1999.90;999.90;;;20.80;99.90;;;;;;4864686;29;20412;-81
2021/07/27 01:46:36;;;;;;;1999.90;999.90;;;20.80;99.90;;;;;;4863936;29;20567;-81
2021/07/27 01:49:02;;;;;;;1999.90;999.90;;;20.80;99.90;;;;;;4862441;29;20888;-81
2021/07/27 01:51:29;;;;;;;1999.90;999.90;;;20.60;99.90;;;;;;4864697;29;20419;-81
2021/07/27 01:53:55;;;;;;;1999.90;999.90;;;20.70;99.90;;;;;;4864154;29;20539;-81
2021/07/27 01:56:23;;;;;;;1999.90;999.90;;;20.60;99.90;;;;;;4863294;29;20986;-81
2021/07/27 01:58:50;;;;;;;1999.90;999.90;;;20.60;99.90;;;;;;4862036;29;20179;-81
2021/07/27 02:01:16;;;;;;;1999.90;999.90;;;20.60;99.90;;;;;;4862185;29;20920;-81
2021/07/27 02:03:42;;;;;;;1999.90;999.90;;;20.60;99.90;;;;;;4863505;29;20787;-81
2021/07/27 02:06:08;;;;;;;1999.90;999.90;;;20.60;99.90;;;;;;4863218;29;20569;-81
2021/07/27 02:08:33;;;;;;;1999.90;999.90;;;20.60;99.90;;;;;;4863454;29;20416;-81
2021/07/27 02:11:02;;;;;;;1999.90;999.90;;;20.60;99.90;;;;;;4863376;29;20465;-81
2021/07/27 02:13:45;;;;;;;1999.90;999.90;;;20.60;99.90;;;;;;4862104;29;20178;-80
2021/07/27 02:16:11;;;;;;;1999.90;999.90;;;20.60;99.90;;;;;;4863378;29;20437;-81
2021/07/27 02:18:36;;;;;;;1999.90;999.90;;;20.60;99.90;;;;;;4863280;29;20407;-81
2021/07/27 02:21:02;;;;;;;1999.90;999.90;;;20.50;99.90;;;;;;4863467;29;20175;-81
2021/07/27 02:23:28;;;;;;;1999.90;999.90;;;20.50;99.90;;;;;;4863522;29;20540;-81
2021/07/27 02:25:54;;;;;;;1999.90;999.90;;;20.50;99.90;;;;;;4863117;29;20556;-80
2021/07/27 02:28:19;;;;;;;1999.90;999.90;;;20.50;99.90;;;;;;4862977;29;20410;-81
2021/07/27 02:30:52;;;;;;;1999.90;999.90;;;20.40;99.90;;;;;;4863122;29;20167;-81
2021/07/27 02:33:21;;;;;;;1999.90;999.90;;;20.40;99.90;;;;;;4862010;29;20641;-81
2021/07/27 02:35:47;;;;;;;1999.90;999.90;;;20.40;99.90;;;;;;4861895;29;20447;-81
2021/07/27 02:38:12;;;;;;;1999.90;999.90;;;20.40;99.90;;;;;;4862912;29;20446;-81
2021/07/27 02:40:39;;;;;;;1999.90;999.90;;;20.30;99.90;;;;;;4863221;29;20249;-81
2021/07/27 02:43:04;;;;;;;1999.90;999.90;;;20.30;99.90;;;;;;4863006;29;20176;-80
2021/07/27 02:45:33;;;;;;;1999.90;999.90;;;20.30;99.90;;;;;;4861504;29;20421;-80
2021/07/27 02:47:59;;;;;;;1999.90;999.90;;;20.30;99.90;;;;;;4863604;29;20977;-80
2021/07/27 02:50:29;;;;;;;1999.90;999.90;;;20.30;99.90;;;;;;4864228;29;20420;-81
2021/07/27 02:52:55;;;;;;;1999.90;999.90;;;20.30;99.90;;;;;;4865802;29;20254;-80
2021/07/27 02:55:21;;;;;;;1999.90;999.90;;;20.30;99.90;;;;;;5022941;23;20575;-80
2021/07/27 02:57:50;;;;;;;1999.90;999.90;;;20.30;99.90;;;;;;4885503;29;20434;-81
2021/07/27 03:00:17;;;;;;;1999.90;999.90;;;20.30;99.90;;;;;;4885651;29;20406;-81
2021/07/27 03:02:49;;;;;;;1999.90;999.90;;;20.30;99.90;;;;;;4886038;29;20497;-81
2021/07/27 03:05:16;;;;;;;1999.90;999.90;;;20.30;99.90;;;;;;4885625;29;20397;-81
2021/07/27 03:07:51;;;;;;;1999.90;999.90;;;20.20;99.90;;;;;;4885354;29;20439;-81
2021/07/27 03:10:22;;;;;;;1999.90;999.90;;;20.20;99.90;;;;;;4885671;29;20415;-81
2021/07/27 03:12:58;;;;;;;1999.90;999.90;;;20.20;99.90;;;;;;4884218;29;20418;-81
2021/07/27 03:15:25;;;;;;;1999.90;999.90;;;20.20;99.90;;;;;;4884125;29;20511;-80
2021/07/27 03:18:03;;;;;;;1999.90;999.90;;;20.10;99.90;;;;;;4885260;29;20403;-81
2021/07/27 03:20:34;;;;;;;1999.90;999.90;;;20.00;99.90;;;;;;4883984;29;20811;-81
2021/07/27 03:23:00;;;;;;;1999.90;999.90;;;20.00;99.90;;;;;;4885449;29;20872;-80
2021/07/27 03:25:34;;;;;;;1999.90;999.90;;;20.00;99.90;;;;;;4899337;29;20436;-80
2021/07/27 03:28:00;;;;;;;1999.90;999.90;;;20.00;99.90;;;;;;4885146;29;20164;-81
2021/07/27 03:30:37;;;;;;;1999.90;999.90;;;20.00;99.90;;;;;;4883566;29;20430;-81
2021/07/27 03:33:06;;;;;;;1999.90;999.90;;;19.90;99.90;;;;;;4885050;29;20192;-81
2021/07/27 03:35:32;;;;;;;1999.90;999.90;;;19.90;99.90;;;;;;4884990;29;20851;-80
2021/07/27 03:38:13;;;;;;;1999.90;999.90;;;19.90;99.90;;;;;;4884518;29;20432;-81
2021/07/27 03:40:44;;;;;;;1999.90;999.90;;;19.90;99.90;;;;;;4884548;29;20227;-81
2021/07/27 03:43:09;;;;;;;1999.90;999.90;;;19.90;99.90;;;;;;4884541;29;20431;-81
2021/07/27 03:45:35;;;;;;;1999.90;999.90;;;19.80;99.90;;;;;;4884165;29;20415;-80
2021/07/27 03:48:01;;;;;;;1999.90;999.90;;;19.80;99.90;;;;;;4884028;29;20169;-81
2021/07/27 03:50:30;;;;;;;1999.90;999.90;;;19.80;99.90;;;;;;4884481;29;20308;-81
2021/07/27 03:52:58;;;;;;;1999.90;999.90;;;19.80;99.90;;;;;;4882606;29;20463;-81
2021/07/27 03:55:27;;;;;;;1999.90;999.90;;;19.70;99.90;;;;;;4883937;29;20457;-80
2021/07/27 03:57:53;;;;;;;1999.90;999.90;;;19.70;99.90;;;;;;4883968;29;20888;-80
2021/07/27 04:00:25;;;;;;;1999.90;999.90;;;19.70;99.90;;;;;;4883939;29;20440;-80
2021/07/27 04:02:51;;;;;;;1999.90;999.90;;;19.70;99.90;;;;;;4898206;29;20240;-81
2021/07/27 04:05:19;;;;;;;1999.90;999.90;;;19.60;99.90;;;;;;4884030;29;20436;-81
2021/07/27 04:07:45;;;;;;;1999.90;999.90;;;19.60;99.90;;;;;;4898470;29;20220;-80
2021/07/27 04:10:13;;;;;;;1999.90;999.90;;;19.60;99.90;;;;;;4898406;29;20919;-81
2021/07/27 04:12:39;;;;;;;1999.90;999.90;;;19.60;99.90;;;;;;4884203;29;20271;-81
2021/07/27 04:15:07;;;;;;;1999.90;999.90;;;19.50;99.90;;;;;;4883894;29;20959;-81
2021/07/27 04:17:33;;;;;;;1999.90;999.90;;;19.40;99.90;;;;;;4884029;29;20191;-81
2021/07/27 04:19:59;;;;;;;1999.90;999.90;;;19.40;99.90;;;;;;4883735;29;20407;-81
2021/07/27 04:22:24;;;;;;;1999.90;999.90;;;19.40;99.90;;;;;;4884117;29;20165;-81
2021/07/27 04:24:54;;;;;;;1999.90;999.90;;;19.40;99.90;;;;;;4884212;29;20764;-81
2021/07/27 04:27:24;;;;;;;1999.90;999.90;;;19.30;99.90;;;;;;4883796;29;20210;-81
2021/07/27 04:29:51;;;;;;;1999.90;999.90;;;19.40;99.90;;;;;;4884254;29;20569;-81
2021/07/27 04:32:17;;;;;;;1999.90;999.90;;;19.50;99.90;;;;;;4884059;29;20428;-81
2021/07/27 04:34:56;;;;;;;1999.90;999.90;;;19.50;99.90;;;;;;4898275;29;20492;-81
2021/07/27 04:37:27;;;;;;;1999.90;999.90;;;19.50;99.90;;;;;;4883725;29;20199;-81
2021/07/27 04:39:53;;;;;;;1999.90;999.90;;;19.50;99.90;;;;;;4883572;29;20446;-81
2021/07/27 04:42:26;;;;;;;1999.90;999.90;;;19.50;99.90;;;;;;4883451;29;20773;-81
2021/07/27 04:44:52;;;;;;;1999.90;999.90;;;19.60;99.90;;;;;;4882577;29;20428;-81
2021/07/27 04:47:18;;;;;;;1999.90;999.90;;;19.50;99.90;;;;;;4883807;29;20840;-81
2021/07/27 04:49:47;;;;;;;1999.90;999.90;;;19.60;99.90;;;;;;4883543;29;20232;-81
2021/07/27 04:52:20;;;;;;;1999.90;999.90;;;19.60;99.90;;;;;;4883761;29;20188;-81
2021/07/27 04:54:55;;;;;;;1999.90;999.90;;;19.70;99.90;;;;;;4883400;29;20444;-81
2021/07/27 04:57:21;;;;;;;1999.90;999.90;;;19.80;99.90;;;;;;4883270;29;20448;-81
2021/07/27 04:59:49;;;;;;;1999.90;999.90;;;19.80;99.90;;;;;;4883318;29;20411;-81
2021/07/27 05:02:35;;;;;;;1999.90;999.90;;;19.80;99.90;;;;;;4883748;29;20199;-81
2021/07/27 05:05:04;;;;;;;1999.90;999.90;;;19.70;99.90;;;;;;4883976;29;20396;-81
2021/07/27 05:07:32;;;;;;;1999.90;999.90;;;19.70;99.90;;;;;;4883268;29;20431;-81
2021/07/27 05:10:01;;;;;;;1999.90;999.90;;;19.60;99.90;;;;;;4883100;29;20425;-81
2021/07/27 05:12:27;;;;;;;1999.90;999.90;;;19.60;99.90;;;;;;4882692;29;20481;-81
2021/07/27 05:14:55;;;;;;;1999.90;999.90;;;19.70;99.90;;;;;;4897193;29;20465;-81
2021/07/27 05:17:21;;;;;;;1999.90;999.90;;;19.70;99.90;;;;;;4883041;29;20493;-81
2021/07/27 05:19:53;;;;;;;1999.90;999.90;;;19.70;99.90;;;;;;4883199;29;20413;-81
2021/07/27 05:22:25;;;;;;;1999.90;999.90;;;19.70;99.90;;;;;;4883211;29;20261;-81
2021/07/27 05:24:54;;;;;;;1999.90;999.90;;;19.60;99.90;;;;;;4883147;29;20450;-81
2021/07/27 05:27:24;;;;;;;1999.90;999.90;;;19.60;99.90;;;;;;4882164;29;20442;-81
2021/07/27 05:29:53;;;;;;;1999.90;999.90;;;19.70;99.90;;;;;;4883491;29;20407;-81
2021/07/27 05:32:19;;;;;;;1999.90;999.90;;;19.70;99.90;;;;;;4882829;29;20419;-81
2021/07/27 05:34:45;;;;;;;1999.90;999.90;;;19.70;99.90;;;;;;4883139;29;21008;-81
2021/07/27 05:37:14;;;;;;;1999.90;999.90;;;19.70;99.90;;;;;;4882912;29;20434;-81
2021/07/27 05:39:45;;;;;;;1999.90;999.90;;;19.70;99.90;;;;;;4883039;29;20167;-81
2021/07/27 05:42:13;;;;;;;1999.90;999.90;;;19.70;99.90;;;;;;4883046;29;20887;-81
2021/07/27 05:44:39;;;;;;;1999.90;999.90;;;19.70;99.90;;;;;;4897537;29;20912;-81
2021/07/27 05:47:11;;;;;;;1999.90;999.90;;;19.70;99.90;;;;;;4881823;29;20490;-81
2021/07/27 05:49:39;;;;;;;1999.90;999.90;;;19.70;99.90;;;;;;4882917;29;20191;-81
2021/07/27 05:52:11;;;;;;;1999.90;999.90;;;19.80;99.90;;;;;;4882925;29;20971;-81
2021/07/27 05:54:41;;;;;;;1999.90;999.90;;;19.80;99.90;;;;;;4882720;29;20812;-81
2021/07/27 05:57:17;;;;;;;1999.90;999.90;;;19.80;99.90;;;;;;4881322;29;20555;-81
2021/07/27 05:59:49;;;;;;;1999.90;999.90;;;19.80;99.90;;;;;;4883688;29;20391;-81
2021/07/27 06:02:21;;;;;;;1999.90;999.90;;;19.80;99.90;;;;;;4882706;29;20404;-81
2021/07/27 06:04:50;;;;;;;1999.90;999.90;;;19.80;99.90;;;;;;4897154;29;20428;-81
2021/07/27 06:07:18;;;;;;;1999.90;999.90;;;19.90;99.90;;;;;;4882891;29;20439;-81
2021/07/27 06:09:50;;;;;;;1999.90;999.90;;;20.00;99.90;;;;;;4881771;29;21003;-81
2021/07/27 06:12:58;;;;;;;1999.90;999.90;;;20.00;99.90;;;;;;4882117;29;20480;-83
2021/07/27 06:15:06;;;;;;;1999.90;999.90;;;20.10;99.90;;;;;;4887231;29;20459;-82
2021/07/27 06:17:35;;;;;;;1999.90;999.90;;;20.20;99.90;;;;;;4883740;29;20439;-83
2021/07/27 06:20:07;;;;;;;1999.90;999.90;;;20.20;99.90;;;;;;4898349;29;20834;-82
2021/07/27 06:22:35;;;;;;;1999.90;999.90;;;20.40;99.90;;;;;;4883993;29;20415;-83
2021/07/27 06:25:03;;;;;;;1999.90;999.90;;;20.40;99.90;;;;;;4886378;29;20515;-82
2021/07/27 06:27:28;;;;;;;1999.90;999.90;;;20.40;99.90;;;;;;4886733;29;20525;-82
2021/07/27 06:29:57;;;;;;;1999.90;999.90;;;20.50;99.90;;;;;;4888042;29;20449;-83
2021/07/27 06:32:23;;;;;;;1999.90;999.90;;;20.50;99.90;;;;;;4887560;29;20257;-83
2021/07/27 06:34:56;;;;;;;1999.90;999.90;;;20.70;99.90;;;;;;4887137;29;20890;-83
2021/07/27 06:37:27;;;;;;;1999.90;999.90;;;20.70;99.90;;;;;;4887609;29;20186;-83
2021/07/27 06:39:53;;;;;;;1999.90;999.90;;;20.70;99.90;;;;;;4886364;29;20419;-83
2021/07/27 06:42:24;;;;;;;1999.90;999.90;;;20.70;99.90;;;;;;4887701;29;20961;-83
2021/07/27 06:44:49;;;;;;;1999.90;999.90;;;20.80;99.90;;;;;;4887666;29;20625;-83
2021/07/27 06:47:18;;;;;;;1999.90;999.90;;;20.80;99.90;;;;;;4886873;29;20439;-83
2021/07/27 06:49:46;;;;;;;1999.90;999.90;;;20.60;99.90;;;;;;4900803;29;20189;-82
2021/07/27 06:52:37;;;;;;;1999.90;999.90;;;20.70;99.90;;;;;;4888048;29;20408;-83
2021/07/27 06:55:08;;;;;;;1999.90;999.90;;;20.80;99.90;;;;;;4886981;29;20443;-83
2021/07/27 06:57:45;;;;;;;1999.90;999.90;;;20.80;99.90;;;;;;4886339;29;20445;-82
2021/07/27 07:00:23;;;;;;;1999.90;999.90;;;20.90;99.90;;;;;;4886253;29;20413;-83
2021/07/27 07:02:51;;;;;;;1999.90;999.90;;;21.00;99.90;;;;;;4885522;29;20456;-83
2021/07/27 07:05:26;;;;;;;1999.90;999.90;;;21.00;99.90;;;;;;4884748;29;20483;-83
2021/07/27 07:07:59;;;;;;;1999.90;999.90;;;21.10;99.90;;;;;;4886003;29;20383;-83
2021/07/27 07:11:05;;;;;;;1999.90;999.90;;;20.90;99.90;;;;;;4885794;29;20467;-83
2021/07/27 07:13:33;;;;;;;1999.90;999.90;;;21.00;99.90;;;;;;4886593;29;20409;-83
2021/07/27 07:16:00;;;;;;;1999.90;999.90;;;21.10;99.90;;;;;;4884760;29;20439;-82
2021/07/27 07:18:31;;;;;;;1999.90;999.90;;;21.10;99.90;;;;;;4886271;29;20467;-83
2021/07/27 07:21:03;;;;;;;1999.90;999.90;;;21.10;99.90;;;;;;4886066;29;20406;-83
2021/07/27 07:23:29;;;;;;;1999.90;999.90;;;21.10;99.90;;;;;;4886882;29;20406;-83
2021/07/27 07:26:00;;;;;;;1999.90;999.90;;;21.20;99.90;;;;;;4886943;29;20428;-83
2021/07/27 07:28:26;;;;;;;1999.90;999.90;;;21.30;99.90;;;;;;4887049;29;20147;-83
2021/07/27 07:30:52;;;;;;;1999.90;999.90;;;21.30;99.90;;;;;;4900455;29;20502;-83
2021/07/27 07:33:17;;;;;;;1999.90;999.90;;;21.40;99.90;;;;;;4886093;29;20163;-83
2021/07/27 07:35:43;;;;;;;1999.90;999.90;;;21.60;99.90;;;;;;4885476;29;20202;-82
2021/07/27 07:38:12;;;;;;;1999.90;999.90;;;21.60;99.90;;;;;;4886004;29;20182;-82
2021/07/27 07:40:37;;;;;;;1999.90;999.90;;;21.70;99.90;;;;;;4886044;29;20187;-83
2021/07/27 07:43:03;;;;;;;1999.90;999.90;;;21.80;99.90;;;;;;4884333;29;20427;-82
2021/07/27 07:45:30;;;;;;;1999.90;999.90;;;21.80;99.90;;;;;;4900240;29;20175;-82
2021/07/27 07:47:56;;;;;;;1999.90;999.90;;;21.80;99.90;;;;;;4886131;29;20399;-83
2021/07/27 07:50:22;;;;;;;1999.90;999.90;;;21.80;99.90;;;;;;4886054;29;20392;-83
2021/07/27 07:53:01;;;;;;;1999.90;999.90;;;21.80;99.90;;;;;;4886285;29;20584;-83
2021/07/27 07:55:28;;;;;;;1999.90;999.90;;;21.90;99.90;;;;;;4900177;29;20465;-83
2021/07/27 07:57:54;;;;;;;1999.90;999.90;;;21.80;99.90;;;;;;4885308;29;20395;-82
2021/07/27 08:00:23;;;;;;;1999.90;999.90;;;21.90;99.90;;;;;;4885975;29;20414;-83
2021/07/27 08:02:50;;;;;;;1999.90;999.90;;;22.00;99.90;;;;;;4886365;29;20832;-82
2021/07/27 08:05:16;;;;;;;1999.90;999.90;;;22.10;99.90;;;;;;4885906;29;20482;-83
2021/07/27 08:07:42;;;;;;;1999.90;999.90;;;22.20;99.90;;;;;;4885419;29;20540;-82
2021/07/27 08:10:09;;;;;;;1999.90;999.90;;;22.20;99.90;;;;;;4885426;29;20171;-83
2021/07/27 08:12:34;;;;;;;1999.90;999.90;;;22.20;99.90;;;;;;4884781;29;20179;-82
2021/07/27 08:15:00;;;;;;;1999.90;999.90;;;22.10;99.90;;;;;;4885179;29;20461;-82
2021/07/27 08:17:26;;;;;;;1999.90;999.90;;;22.20;99.90;;;;;;4885317;29;20604;-82
2021/07/27 08:19:51;;;;;;;1999.90;999.90;;;22.20;99.90;;;;;;4883897;29;20175;-82
2021/07/27 08:22:17;;;;;;;1999.90;999.90;;;22.10;99.90;;;;;;4883996;29;20175;-82
2021/07/27 08:24:42;;;;;;;1999.90;999.90;;;22.10;99.90;;;;;;4883967;29;20181;-82
2021/07/27 08:27:08;;;;;;;1999.90;999.90;;;22.10;99.90;;;;;;4884828;29;20254;-83
2021/07/27 08:29:37;;;;;;;1999.90;999.90;;;22.10;99.90;;;;;;4884718;29;20179;-82
2021/07/27 08:32:10;;;;;;;1999.90;999.90;;;22.20;99.90;;;;;;4884260;29;20508;-82
2021/07/27 08:34:44;;;;;;;1999.90;999.90;;;22.30;99.90;;;;;;4898995;29;20457;-82
2021/07/27 08:37:10;;;;;;;1999.90;999.90;;;22.40;99.90;;;;;;4898331;29;20443;-81
2021/07/27 08:39:36;;;;;;;1999.90;999.90;;;22.60;99.90;;;;;;4882273;29;20414;-82
2021/07/27 08:42:04;;;;;;;1999.90;999.90;;;22.60;99.90;;;;;;4884363;29;20498;-83
2021/07/27 08:44:35;;;;;;;1999.90;999.90;;;22.70;99.90;;;;;;4884077;29;20420;-82
2021/07/27 08:47:05;;;;;;;1999.90;999.90;;;22.70;99.90;;;;;;4883507;29;20431;-82
2021/07/27 08:49:32;;;;;;;1999.90;999.90;;;22.80;99.90;;;;;;4883505;29;20422;-83
2021/07/27 08:51:58;;;;;;;1999.90;999.90;;;22.70;99.90;;;;;;4883433;29;20479;-82
2021/07/27 08:54:24;;;;;;;1999.90;999.90;;;22.80;99.90;;;;;;4883905;29;20455;-82
2021/07/27 08:56:52;;;;;;;1999.90;999.90;;;22.90;99.90;;;;;;4882768;29;20902;-82
2021/07/27 08:59:19;;;;;;;1999.90;999.90;;;23.10;99.90;;;;;;4883403;29;20502;-81
2021/07/27 09:01:45;;;;;;;1999.90;999.90;;;23.20;99.90;;;;;;4884101;29;20470;-82
2021/07/27 09:04:11;;;;;;;1999.90;999.90;;;23.30;99.90;;;;;;4882717;29;20427;-82
2021/07/27 09:13:33;;;;;;;1999.90;999.90;;;23.80;99.90;;;;;;4884250;29;20406;-82
2021/07/27 09:16:25;;;;;;;1999.90;999.90;;;24.00;99.90;;;;;;4884523;29;20465;-81
2021/07/27 09:19:02;;;;;;;1999.90;999.90;;;24.20;99.90;;;;;;4883605;29;20776;-82
2021/07/27 09:21:55;;;;;;;1999.90;999.90;;;24.10;99.90;;;;;;4898349;29;20410;-82
2021/07/27 09:24:21;;;;;;;1999.90;999.90;;;24.00;99.90;;;;;;4949769;23;20441;-77
2021/07/27 09:26:58;;;;;;;1999.90;999.90;;;23.90;99.90;;;;;;4879815;29;20423;-76
2021/07/27 09:29:27;;;;;;;1999.90;999.90;;;23.90;99.90;;;;;;4879739;29;20261;-77
2021/07/27 09:31:54;;;;;;;1999.90;999.90;;;23.80;99.90;;;;;;4879509;29;20408;-77
2021/07/27 09:34:22;;;;;;;1999.90;999.90;;;23.90;99.90;;;;;;4879403;29;20461;-77
2021/07/27 09:37:02;;;;;;;1999.90;999.90;;;24.00;99.90;;;;;;4879316;29;20431;-77
2021/07/27 09:39:28;;;;;;;1999.90;999.90;;;24.20;99.90;;;;;;4878199;29;20407;-77
2021/07/27 09:42:04;;;;;;;1999.90;999.90;;;24.20;99.90;;;;;;4879688;29;20418;-77
2021/07/27 09:44:31;;;;;;;1999.90;999.90;;;24.10;99.90;;;;;;4879568;29;20174;-77
2021/07/27 09:46:58;;;;;;;1999.90;999.90;;;24.30;99.90;;;;;;4879377;29;20482;-77
2021/07/27 09:49:24;;;;;;;1999.90;999.90;;;24.30;99.90;;;;;;4879379;29;20408;-76
2021/07/27 09:51:51;;;;;;;1999.90;999.90;;;24.40;99.90;;;;;;4879265;29;20415;-76
2021/07/27 09:54:18;;;;;;;1999.90;999.90;;;24.30;99.90;;;;;;4879091;29;20447;-76
2021/07/27 09:56:45;;;;;;;1999.90;999.90;;;24.40;99.90;;;;;;4879143;29;20423;-76
2021/07/27 09:59:13;;;;;;;1999.90;999.90;;;24.50;99.90;;;;;;4879665;29;20408;-77
2021/07/27 10:01:42;;;;;;;1999.90;999.90;;;24.70;99.90;;;;;;4883322;29;20732;-77
2021/07/27 10:04:08;;;;;;;1999.90;999.90;;;24.90;99.90;;;;;;4882950;29;20444;-77
2021/07/27 10:06:37;;;;;;;1999.90;999.90;;;25.10;99.60;;;;;;4897168;29;20869;-76
2021/07/27 10:09:04;;;;;;;1999.90;999.90;;;25.30;98.70;;;;;;4882841;29;20828;-77
2021/07/27 10:11:40;;;;;;;1999.90;999.90;;;25.40;94.90;;;;;;4897290;29;20423;-76
2021/07/27 10:14:08;;;;;;;1999.90;999.90;;;25.20;92.10;;;;;;4897665;29;20457;-77
2021/07/27 10:16:33;;;;;;;1999.90;999.90;;;25.00;94.50;;;;;;4882857;29;20434;-77
2021/07/27 10:19:20;;;;;;;1999.90;999.90;;;24.90;95.40;;;;;;4882810;29;20417;-77
2021/07/27 10:22:03;;;;;;;1999.90;999.90;;;24.90;99.60;;;;;;4897087;29;20170;-77
2021/07/27 10:24:36;;;;;;;1999.90;999.90;;;24.80;95.50;;;;;;4882554;29;20419;-76
2021/07/27 10:27:09;;;;;;;1999.90;999.90;;;24.90;99.30;;;;;;4882864;29;20933;-76
2021/07/27 10:29:34;;;;;;;1999.90;999.90;;;24.80;99.00;;;;;;4896880;29;20413;-76
2021/07/27 10:32:23;;;;;;;1999.90;999.90;;;24.80;98.20;;;;;;4882435;29;20415;-77
2021/07/27 10:34:52;;;;;;;1999.90;999.90;;;24.90;97.70;;;;;;4896834;29;20215;-77
2021/07/27 10:37:18;;;;;;;1999.90;999.90;;;25.00;95.40;;;;;;4882295;29;20514;-76
2021/07/27 10:39:59;;;;;;;1999.90;999.90;;;25.00;94.40;;;;;;4882311;29;20464;-77
2021/07/27 10:42:36;;;;;;;1999.90;999.90;;;25.30;94.20;;;;;;4881876;29;20420;-77
2021/07/27 10:45:02;;;;;;;1999.90;999.90;;;25.60;89.00;;;;;;4881081;29;20406;-77
2021/07/27 10:47:28;;;;;;;1999.90;999.90;;;25.90;92.20;;;;;;4896530;29;20448;-77
2021/07/27 10:50:04;;;;;;;1999.90;999.90;;;26.10;77.50;;;;;;4880983;29;20936;-77
2021/07/27 10:52:31;;;;;;;1999.90;999.90;;;26.30;74.90;;;;;;4882222;29;20181;-77
2021/07/27 10:54:58;;;;;;;1999.90;999.90;;;26.60;65.60;;;;;;4882062;29;20987;-77
2021/07/27 10:57:37;;;;;;;1999.90;999.90;;;26.80;54.90;;;;;;4881977;29;20437;-77
2021/07/27 11:00:06;;;;;;;1999.90;999.90;;;27.00;46.70;;;;;;4882203;29;20447;-77
2021/07/27 11:02:32;;;;;;;1999.90;999.90;;;27.10;39.10;;;;;;4882009;29;20415;-77
2021/07/27 11:04:58;;;;;;;1999.90;999.90;;;27.30;44.90;;;;;;4881952;29;20567;-77
2021/07/27 11:07:26;;;;;;;1999.90;999.90;;;27.20;39.30;;;;;;4881822;29;20466;-77
2021/07/27 11:09:55;;;;;;;1999.90;999.90;;;27.10;37.20;;;;;;4880566;29;20178;-77
2021/07/27 11:12:29;;;;;;;1999.90;999.90;;;27.10;33.60;;;;;;4881781;29;20771;-77
2021/07/27 11:15:09;;;;;;;1999.90;999.90;;;27.00;33.30;;;;;;4881971;29;20447;-76
2021/07/27 11:17:42;;;;;;;1999.90;999.90;;;26.70;29.80;;;;;;4881935;29;20795;-77
2021/07/27 11:20:09;;;;;;;1999.90;999.90;;;26.60;33.10;;;;;;4881701;29;20395;-77
2021/07/27 11:22:35;;;;;;;1999.90;999.90;;;26.70;33.80;;;;;;4881533;29;20403;-77
2021/07/27 11:25:02;;;;;;;1999.90;999.90;;;26.60;50.00;;;;;;4881428;29;20608;-76
2021/07/27 11:27:29;;;;;;;1999.90;999.90;;;26.70;45.70;;;;;;4880158;29;20442;-77
2021/07/27 11:29:59;;;;;;;1999.90;999.90;;;26.70;36.10;;;;;;4895849;29;20423;-76
2021/07/27 11:32:38;;;;;;;1999.90;999.90;;;26.80;31.90;;;;;;4881378;29;20403;-76
2021/07/27 11:35:04;;;;;;;1999.90;999.90;;;27.10;28.80;;;;;;4881338;29;20445;-77
2021/07/27 11:37:30;;;;;;;1999.90;999.90;;;27.20;30.50;;;;;;4881342;29;20479;-76
2021/07/27 11:39:56;;;;;;;1999.90;999.90;;;27.10;28.50;;;;;;4881271;29;20415;-77
2021/07/27 11:42:29;;;;;;;1999.90;999.90;;;27.00;32.60;;;;;;4881296;29;20178;-76
2021/07/27 11:44:57;;;;;;;1999.90;999.90;;;27.00;32.20;;;;;;4881323;29;20539;-76
2021/07/27 11:47:24;;;;;;;1999.90;999.90;;;27.40;33.30;;;;;;4881111;29;20427;-76
2021/07/27 11:49:56;;;;;;;1999.90;999.90;;;27.40;30.80;;;;;;4881133;29;20418;-76
2021/07/27 11:52:28;;;;;;;1999.90;999.90;;;27.00;31.00;;;;;;4881060;29;20415;-77
2021/07/27 11:55:05;;;;;;;1999.90;999.90;;;26.80;32.30;;;;;;4881249;29;20545;-77
2021/07/27 11:57:30;;;;;;;1999.90;999.90;;;26.50;41.00;;;;;;4881205;29;20430;-76
2021/07/27 12:00:10;;;;;;;1999.90;999.90;;;26.50;45.40;;;;;;4880960;29;20407;-76
2021/07/27 12:02:36;;;;;;;1999.90;999.90;;;26.50;42.80;;;;;;4881173;29;20186;-76
2021/07/27 12:05:02;;;;;;;1999.90;999.90;;;26.60;47.70;;;;;;4880945;29;20478;-76
2021/07/27 12:07:29;;;;;;;1999.90;999.90;;;26.70;29.90;;;;;;4881051;29;20182;-77
2021/07/27 12:09:55;;;;;;;1999.90;999.90;;;26.50;42.10;;;;;;4880855;29;20167;-76
2021/07/27 12:12:21;;;;;;;1999.90;999.90;;;26.60;37.00;;;;;;4880754;29;20408;-76
2021/07/27 12:14:47;;;;;;;1999.90;999.90;;;26.70;34.80;;;;;;4880587;29;20455;-76
2021/07/27 12:17:12;;;;;;;1999.90;999.90;;;26.60;30.90;;;;;;4880548;29;20840;-76
2021/07/27 12:19:38;;;;;;;1999.90;999.90;;;26.60;38.50;;;;;;4881087;29;20269;-76
2021/07/27 12:22:03;;;;;;;1999.90;999.90;;;26.70;34.20;;;;;;4880097;29;20250;-76
2021/07/27 12:24:29;;;;;;;1999.90;999.90;;;26.80;37.80;;;;;;4879082;29;20572;-76
2021/07/27 12:26:55;;;;;;;1999.90;999.90;;;26.90;35.80;;;;;;4879207;29;20195;-76
2021/07/27 12:29:20;;;;;;;1999.90;999.90;;;26.70;37.70;;;;;;4880730;29;20206;-76
2021/07/27 12:31:46;;;;;;;1999.90;999.90;;;27.00;35.80;;;;;;4880335;29;20674;-76
2021/07/27 12:34:12;;;;;;;1999.90;999.90;;;27.00;35.90;;;;;;4880233;29;20230;-76
2021/07/27 12:36:38;;;;;;;1999.90;999.90;;;27.10;34.60;;;;;;4878904;29;20870;-76
2021/07/27 12:39:04;;;;;;;1999.90;999.90;;;27.00;37.70;;;;;;4880456;29;20700;-76